Komatipoort Airport


Codes: FAKP/KOF
Name: Komatipoort Airport
City: Komatipoort
Country: South Africa
Elevation: 541 ft.

Photos at Komatipoort Airport


   Photos courtesy of SpottingLog. You can add your own sightings and photos by signing up for a free trial today.



No photos found.

Weather at Komatipoort Airport


Time (UTC)DescriptionTempratureWindCloud coverageVisibilityPressureHumidity
23-May-2024 21:00Clear Sky17°C2 mph, NW0%10000m1019hPa60%
24-May-2024 00:00Clear Sky16°C4 mph, NW0%10000m1019hPa65%
24-May-2024 03:00Clear Sky15°C2 mph, NW0%10000m1019hPa70%
24-May-2024 06:00Clear Sky18°C2 mph, SW0%10000m1022hPa52%
24-May-2024 09:00Clear Sky26°C4 mph, S0%10000m1022hPa31%
24-May-2024 12:00Clear Sky28°C7 mph, SE0%10000m1019hPa32%
24-May-2024 15:00Clear Sky23°C7 mph, SE0%10000m1020hPa50%
24-May-2024 18:00Clear Sky18°C4 mph, SE0%10000m1023hPa74%
24-May-2024 21:00Clear Sky17°C4 mph, SW0%10000m1024hPa84%
25-May-2024 00:00Clear Sky16°C2 mph, SW0%10000m1023hPa89%
25-May-2024 03:00Clear Sky16°C4 mph, SW0%10000m1023hPa94%
25-May-2024 06:00Clear Sky19°C4 mph, SW0%10000m1024hPa74%
25-May-2024 09:00Clear Sky26°C4 mph, SW0%10000m1023hPa48%
25-May-2024 12:00Clear Sky28°C7 mph, SE6%10000m1020hPa39%
25-May-2024 15:00Clear Sky24°C7 mph, E10%10000m1020hPa55%
25-May-2024 18:00Clear Sky18°C2 mph, SE5%10000m1022hPa90%
25-May-2024 21:00Clear Sky18°C4 mph, SW1%10000m1023hPa97%
26-May-2024 00:00Clear Sky17°C2 mph, W6%10000m1021hPa97%
26-May-2024 03:00Clear Sky16°C2 mph, NW7%10000m1020hPa97%
26-May-2024 06:00Clear Sky19°C4 mph, NW5%10000m1021hPa77%
26-May-2024 09:00Clear Sky27°C7 mph, NW0%10000m1020hPa42%
26-May-2024 12:00Clear Sky31°C4 mph, N0%10000m1016hPa25%
26-May-2024 15:00Clear Sky26°C4 mph, E0%10000m1017hPa36%
26-May-2024 18:00Clear Sky21°C2 mph, SE0%10000m1020hPa54%
26-May-2024 21:00Clear Sky18°C7 mph, S0%10000m1023hPa77%
27-May-2024 00:00Clear Sky17°C7 mph, S0%10000m1023hPa91%
27-May-2024 03:00Few Clouds16°C4 mph, SW18%10000m1024hPa94%
27-May-2024 06:00Scattered Clouds19°C4 mph, S28%10000m1026hPa73%
27-May-2024 09:00Broken Clouds24°C4 mph, SE72%10000m1026hPa56%
27-May-2024 12:00Overcast Clouds24°C2 mph, SE86%10000m1024hPa55%
27-May-2024 15:00Overcast Clouds22°C4 mph, SE100%10000m1024hPa66%
27-May-2024 18:00Light Rain19°C2 mph, E98%10000m1027hPa86%
27-May-2024 21:00Light Rain19°C2 mph, SE100%10000m1027hPa87%
28-May-2024 00:00Overcast Clouds18°C2 mph, SE90%10000m1026hPa93%
28-May-2024 03:00Few Clouds17°C0 mph, SW14%10000m1026hPa95%
28-May-2024 06:00Scattered Clouds19°C0 mph, NW32%10000m1027hPa84%
28-May-2024 09:00Few Clouds25°C4 mph, N11%10000m1026hPa55%
28-May-2024 12:00Scattered Clouds27°C7 mph, NE32%10000m1022hPa43%
28-May-2024 15:00Clear Sky23°C7 mph, NE9%10000m1022hPa54%
28-May-2024 18:00Clear Sky18°C4 mph, NE6%10000m1023hPa81%